createdAt,value
2017-06-23T00:00:01.527Z,30.7
2017-06-23T00:01:03.334Z,30.7
2017-06-23T00:02:05.466Z,30.7
2017-06-23T00:03:07.605Z,30.6
2017-06-23T00:04:09.404Z,30.7
2017-06-23T00:05:11.543Z,30.7
2017-06-23T00:06:13.682Z,30.7
2017-06-23T00:07:15.132Z,30.7
2017-06-23T00:08:17.267Z,30.7
2017-06-23T00:09:19.410Z,30.7
2017-06-23T00:10:21.217Z,30.6
2017-06-23T00:11:23.355Z,30.7
2017-06-23T00:12:25.167Z,30.6
2017-06-23T00:13:26.976Z,30.7
2017-06-23T00:14:28.788Z,30.7
2017-06-23T00:15:30.570Z,30.7
2017-06-23T00:16:32.710Z,30.6
2017-06-23T00:17:34.867Z,30.7
2017-06-23T00:18:35.969Z,30.7
2017-06-23T00:19:38.109Z,30.7
2017-06-23T00:20:40.246Z,30.7
2017-06-23T00:21:42.384Z,30.7
2017-06-23T00:22:43.867Z,30.7
2017-06-23T00:23:46.003Z,30.6
2017-06-23T00:24:47.787Z,30.7
2017-06-23T00:25:49.926Z,30.7
2017-06-23T00:26:52.062Z,30.7
2017-06-23T00:27:54.198Z,30.7
2017-06-23T00:28:55.982Z,30.6
2017-06-23T00:29:58.121Z,30.7
2017-06-23T00:31:00.257Z,30.7
2017-06-23T00:32:02.395Z,30.7
2017-06-23T00:33:04.532Z,30.7
2017-06-23T00:34:06.338Z,30.7
2017-06-23T00:35:08.143Z,30.6
2017-06-23T00:36:09.949Z,30.7
2017-06-23T00:37:12.086Z,30.6
2017-06-23T00:38:14.220Z,30.6
2017-06-23T00:39:16.003Z,30.7
2017-06-23T00:40:18.153Z,30.6
2017-06-23T00:41:20.291Z,30.7
2017-06-23T00:42:22.429Z,30.6
2017-06-23T00:43:23.545Z,30.6
2017-06-23T00:44:25.683Z,30.6
2017-06-23T00:45:27.487Z,30.7
2017-06-23T00:46:29.628Z,30.6
2017-06-23T00:47:31.771Z,30.7
2017-06-23T00:48:33.911Z,30.6
2017-06-23T00:49:36.047Z,30.7
2017-06-23T00:50:38.187Z,30.7
2017-06-23T00:51:39.990Z,30.6
2017-06-23T00:52:41.439Z,30.6
2017-06-23T00:53:43.227Z,30.6
2017-06-23T00:54:45.045Z,30.7
2017-06-23T00:55:46.505Z,30.6
2017-06-23T00:56:48.651Z,30.6
2017-06-23T00:57:50.788Z,30.6
2017-06-23T00:58:52.924Z,30.6
2017-06-23T00:59:54.727Z,30.7
2017-06-23T01:00:56.535Z,30.6
2017-06-23T01:01:58.672Z,30.6
2017-06-23T01:03:00.122Z,30.6
2017-06-23T01:04:01.907Z,30.6
2017-06-23T01:05:04.045Z,30.6
2017-06-23T01:06:05.858Z,30.6
2017-06-23T01:07:07.998Z,30.6
2017-06-23T01:08:10.136Z,30.7
2017-06-23T01:09:11.940Z,30.6
2017-06-23T01:10:14.080Z,30.6
2017-06-23T01:11:15.882Z,30.6
2017-06-23T01:12:17.332Z,30.6
2017-06-23T01:13:18.783Z,30.6
2017-06-23T01:14:20.587Z,30.6
2017-06-23T01:15:22.725Z,30.5
2017-06-23T01:16:24.532Z,30.6
2017-06-23T01:17:26.334Z,30.6
2017-06-23T01:18:27.810Z,30.5
2017-06-23T01:19:29.615Z,30.6
2017-06-23T01:20:31.418Z,30.6
2017-06-23T01:21:33.554Z,30.6
2017-06-23T01:22:35.691Z,30.6
2017-06-23T01:23:37.144Z,30.7
2017-06-23T01:24:39.280Z,30.5
2017-06-23T01:25:40.729Z,30.5
2017-06-23T01:26:42.196Z,30.6
2017-06-23T01:27:43.980Z,30.7
2017-06-23T01:28:45.433Z,30.6
2017-06-23T01:29:46.904Z,30.6
2017-06-23T01:30:49.053Z,30.5
2017-06-23T01:31:50.501Z,30.6
2017-06-23T01:32:52.309Z,30.6
2017-06-23T01:33:54.447Z,30.6
2017-06-23T01:34:56.252Z,30.7
2017-06-23T01:35:58.392Z,30.5
2017-06-23T01:37:00.198Z,30.5
2017-06-23T01:38:02.336Z,30.6
2017-06-23T01:39:04.136Z,30.6
2017-06-23T01:40:05.957Z,30.6
2017-06-23T01:41:07.475Z,30.5
2017-06-23T01:42:09.609Z,30.7
2017-06-23T01:43:11.752Z,30.6
2017-06-23T01:44:13.534Z,30.5
2017-06-23T01:45:15.335Z,30.5
2017-06-23T01:46:17.139Z,30.6
2017-06-23T01:47:18.614Z,30.6
2017-06-23T01:48:20.395Z,30.7
2017-06-23T01:49:21.844Z,30.6
2017-06-23T01:50:23.648Z,30.5
2017-06-23T01:51:25.785Z,30.5
2017-06-23T01:52:27.925Z,30.5
2017-06-23T01:53:30.063Z,30.5
2017-06-23T01:54:31.865Z,30.5
2017-06-23T01:55:34.002Z,30.5
2017-06-23T01:56:35.782Z,30.5
2017-06-23T01:57:37.920Z,30.5
2017-06-23T01:58:39.370Z,30.5
2017-06-23T01:59:41.506Z,30.5
2017-06-23T02:00:43.644Z,30.5
2017-06-23T02:01:45.430Z,30.6
2017-06-23T02:02:46.880Z,30.5
2017-06-23T02:03:49.018Z,30.5
2017-06-23T02:04:50.157Z,30.6
2017-06-23T02:05:51.604Z,30.5
2017-06-23T02:06:53.411Z,30.6
2017-06-23T02:07:55.195Z,30.5
2017-06-23T02:08:56.666Z,30.5
2017-06-23T02:09:58.464Z,30.5
2017-06-23T02:11:00.269Z,30.5
2017-06-23T02:12:02.405Z,30.6
2017-06-23T02:13:04.187Z,30.5
2017-06-23T02:14:05.363Z,30.6
2017-06-23T02:15:06.836Z,30.6
2017-06-23T02:16:08.303Z,30.5
2017-06-23T02:17:10.108Z,30.5
2017-06-23T02:18:12.245Z,30.5
2017-06-23T02:19:14.025Z,30.4
2017-06-23T02:20:15.897Z,30.5
2017-06-23T02:21:17.389Z,30.5
2017-06-23T02:22:19.216Z,30.5
2017-06-23T02:23:21.022Z,30.5
2017-06-23T02:24:23.159Z,30.5
2017-06-23T02:25:25.297Z,30.5
2017-06-23T02:26:27.491Z,30.5
2017-06-23T02:27:29.626Z,30.5
2017-06-23T02:28:31.763Z,30.5
2017-06-23T02:29:33.565Z,30.5
2017-06-23T02:30:35.705Z,30.4
2017-06-23T02:31:37.525Z,30.5
2017-06-23T02:32:39.357Z,30.5
2017-06-23T02:33:41.490Z,30.5
2017-06-23T02:34:43.293Z,30.5
2017-06-23T02:35:45.100Z,30.5
2017-06-23T02:36:47.235Z,30.5
2017-06-23T02:37:48.702Z,30.4
2017-06-23T02:38:50.840Z,30.5
2017-06-23T02:39:52.642Z,30.4
2017-06-23T02:40:54.780Z,30.5
2017-06-23T02:41:56.919Z,30.5
2017-06-23T02:42:58.729Z,30.5
2017-06-23T02:44:00.868Z,30.5
2017-06-23T02:45:03.009Z,30.5
2017-06-23T02:46:04.811Z,30.5
2017-06-23T02:47:06.287Z,30.5
2017-06-23T02:48:08.090Z,30.5
2017-06-23T02:49:10.231Z,30.5
2017-06-23T02:50:12.372Z,30.4
2017-06-23T02:51:14.518Z,30.4
2017-06-23T02:52:16.299Z,30.5
2017-06-23T02:53:18.438Z,30.5
2017-06-23T02:54:19.887Z,30.5
2017-06-23T02:55:22.076Z,30.5
2017-06-23T02:56:23.211Z,30.5
2017-06-23T02:57:24.668Z,30.5
2017-06-23T02:58:26.802Z,30.5
2017-06-23T02:59:28.608Z,30.4
2017-06-23T03:00:30.744Z,30.5
2017-06-23T03:01:32.553Z,30.5
2017-06-23T03:02:34.702Z,30.5
2017-06-23T03:03:36.839Z,30.5
2017-06-23T03:04:38.978Z,30.5
2017-06-23T03:05:40.450Z,30.5
2017-06-23T03:06:42.233Z,30.4
2017-06-23T03:07:43.703Z,30.5
2017-06-23T03:08:45.842Z,30.4
2017-06-23T03:09:47.980Z,30.5
2017-06-23T03:10:49.786Z,30.5
2017-06-23T03:11:51.923Z,30.4
2017-06-23T03:12:53.731Z,30.5
2017-06-23T03:13:55.182Z,30.4
2017-06-23T03:14:57.321Z,30.4
2017-06-23T03:15:59.127Z,30.4
2017-06-23T03:17:00.930Z,30.5
2017-06-23T03:18:03.085Z,30.5
2017-06-23T03:19:04.883Z,30.6
2017-06-23T03:20:06.409Z,30.5
2017-06-23T03:21:08.225Z,30.6
2017-06-23T03:22:09.672Z,30.5
2017-06-23T03:23:11.810Z,30.4
2017-06-23T03:24:13.951Z,30.5
2017-06-23T03:25:15.755Z,30.5
2017-06-23T03:26:17.561Z,30.4
2017-06-23T03:27:19.363Z,30.4
2017-06-23T03:28:21.503Z,30.4
2017-06-23T03:29:23.643Z,30.5
2017-06-23T03:30:25.777Z,30.4
2017-06-23T03:31:27.229Z,30.4
2017-06-23T03:32:29.011Z,30.5
2017-06-23T03:33:31.150Z,30.5
2017-06-23T03:34:32.623Z,30.4
2017-06-23T03:35:34.096Z,30.5
2017-06-23T03:36:36.233Z,30.5
2017-06-23T03:37:38.369Z,30.5
2017-06-23T03:38:39.817Z,30.5
2017-06-23T03:39:41.602Z,30.4
2017-06-23T03:40:43.405Z,30.5
2017-06-23T03:41:45.210Z,30.5
2017-06-23T03:42:47.347Z,30.5
2017-06-23T03:43:49.486Z,30.4
2017-06-23T03:44:51.627Z,30.5
2017-06-23T03:45:53.816Z,30.4
2017-06-23T03:46:55.956Z,30.5
2017-06-23T03:47:57.767Z,30.5
2017-06-23T03:48:59.564Z,30.5
2017-06-23T03:50:01.372Z,30.5
2017-06-23T03:51:03.607Z,30.5
2017-06-23T03:52:05.413Z,30.5
2017-06-23T03:53:07.552Z,30.5
2017-06-23T03:54:09.336Z,30.5
2017-06-23T03:55:11.477Z,30.6
2017-06-23T03:56:13.280Z,30.6
2017-06-23T03:57:15.419Z,30.4
2017-06-23T03:58:17.559Z,30.4
2017-06-23T03:59:19.695Z,30.5
2017-06-23T04:00:21.174Z,30.5
2017-06-23T04:01:23.311Z,30.5
2017-06-23T04:02:25.121Z,30.6
2017-06-23T04:03:26.924Z,30.4
2017-06-23T04:04:29.062Z,30.5
2017-06-23T04:05:30.869Z,30.4
2017-06-23T04:06:32.320Z,30.5
2017-06-23T04:07:34.126Z,30.5
2017-06-23T04:08:35.911Z,30.5
2017-06-23T04:09:37.719Z,30.5
2017-06-23T04:10:39.524Z,30.5
2017-06-23T04:11:41.384Z,30.4
2017-06-23T04:12:42.832Z,30.5
2017-06-23T04:13:44.638Z,30.4
2017-06-23T04:14:46.780Z,30.5
2017-06-23T04:15:48.590Z,30.4
2017-06-23T04:16:50.724Z,30.5
2017-06-23T04:17:52.859Z,30.4
2017-06-23T04:18:55.002Z,30.4
2017-06-23T04:19:56.803Z,30.4
2017-06-23T04:20:58.585Z,30.5
2017-06-23T04:22:00.725Z,30.5
2017-06-23T04:23:02.865Z,30.5
2017-06-23T04:24:04.674Z,30.5
2017-06-23T04:25:06.479Z,30.5
2017-06-23T04:26:08.287Z,30.4
2017-06-23T04:27:10.426Z,30.5
2017-06-23T04:28:12.227Z,30.5
2017-06-23T04:29:14.030Z,30.5
2017-06-23T04:30:15.817Z,30.5
2017-06-23T04:31:17.958Z,30.5
2017-06-23T04:32:19.767Z,30.4
2017-06-23T04:33:21.903Z,30.4
2017-06-23T04:34:23.693Z,30.5
2017-06-23T04:35:25.473Z,30.5
2017-06-23T04:36:27.275Z,30.5
2017-06-23T04:37:29.414Z,30.5
2017-06-23T04:38:31.553Z,30.4
2017-06-23T04:39:33.003Z,30.4
2017-06-23T04:40:35.143Z,30.5
2017-06-23T04:41:36.924Z,30.5
2017-06-23T04:42:39.060Z,30.5
2017-06-23T04:43:40.877Z,30.5
2017-06-23T04:44:42.323Z,30.4
2017-06-23T04:45:43.437Z,30.5
2017-06-23T04:46:44.886Z,30.5
2017-06-23T04:47:46.361Z,30.5
2017-06-23T04:48:47.154Z,30.5
2017-06-23T04:49:48.937Z,30.5
2017-06-23T04:50:51.078Z,30.5
2017-06-23T04:51:53.219Z,30.6
2017-06-23T04:52:55.359Z,30.6
2017-06-23T04:53:57.499Z,30.5
2017-06-23T04:54:59.308Z,30.5
2017-06-23T04:56:01.088Z,30.5
2017-06-23T04:57:02.897Z,30.5
2017-06-23T04:58:05.034Z,30.6
2017-06-23T04:59:06.839Z,30.6
2017-06-23T05:00:08.640Z,30.6
2017-06-23T05:01:10.779Z,30.6
2017-06-23T05:02:12.591Z,30.7
2017-06-23T05:03:14.405Z,30.6
2017-06-23T05:04:15.854Z,30.6
2017-06-23T05:05:17.993Z,30.6
2017-06-23T05:06:20.133Z,30.6
2017-06-23T05:07:21.601Z,30.6
2017-06-23T05:08:23.408Z,30.6
2017-06-23T05:09:25.549Z,30.6
2017-06-23T05:10:27.351Z,30.6
2017-06-23T05:11:29.162Z,30.6
2017-06-23T05:12:30.967Z,30.6
2017-06-23T05:13:32.877Z,30.7
2017-06-23T05:14:34.663Z,30.7
2017-06-23T05:15:36.469Z,30.6
2017-06-23T05:16:38.606Z,30.6
2017-06-23T05:17:40.744Z,30.7
2017-06-23T05:18:42.930Z,30.7
2017-06-23T05:19:44.404Z,30.7
2017-06-23T05:20:46.206Z,30.6
2017-06-23T05:21:48.349Z,30.7
2017-06-23T05:22:50.152Z,30.7
2017-06-23T05:23:52.293Z,30.6
2017-06-23T05:24:54.430Z,30.7
2017-06-23T05:25:56.235Z,30.7
2017-06-23T05:26:58.370Z,30.7
2017-06-23T05:27:59.837Z,30.7
2017-06-23T05:29:01.314Z,30.7
2017-06-23T05:30:02.787Z,30.7
2017-06-23T05:31:04.927Z,30.6
2017-06-23T05:32:06.728Z,30.7
2017-06-23T05:33:08.535Z,30.7
2017-06-23T05:34:10.678Z,30.6
2017-06-23T05:35:12.487Z,30.7
2017-06-23T05:36:14.624Z,30.7
2017-06-23T05:37:16.407Z,30.7
2017-06-23T05:38:18.214Z,30.7
2017-06-23T05:39:19.687Z,30.7
2017-06-23T05:40:21.491Z,30.7
2017-06-23T05:41:23.631Z,30.7
2017-06-23T05:42:25.431Z,30.7
2017-06-23T05:43:27.570Z,30.7
2017-06-23T05:44:29.362Z,30.7
2017-06-23T05:45:31.177Z,30.7
2017-06-23T05:46:32.987Z,30.7
2017-06-23T05:47:35.126Z,30.7
2017-06-23T05:48:36.593Z,30.8
2017-06-23T05:49:38.377Z,30.7
2017-06-23T05:50:40.182Z,30.7
2017-06-23T05:51:41.988Z,30.7
2017-06-23T05:52:43.793Z,30.7
2017-06-23T05:53:45.596Z,30.7
2017-06-23T05:54:47.739Z,30.7
2017-06-23T05:55:49.203Z,30.7
2017-06-23T05:56:50.993Z,30.7
2017-06-23T05:57:52.798Z,30.7
2017-06-23T05:58:55.038Z,30.7
2017-06-23T05:59:56.488Z,30.7
2017-06-23T06:00:58.630Z,30.7
2017-06-23T06:02:00.444Z,30.7
2017-06-23T06:03:02.584Z,30.7
2017-06-23T06:04:04.743Z,30.7
2017-06-23T06:05:06.883Z,30.7
2017-06-23T06:06:09.027Z,30.7
2017-06-23T06:07:10.820Z,30.7
2017-06-23T06:08:12.958Z,30.7
2017-06-23T06:09:14.767Z,30.7
2017-06-23T06:10:16.574Z,30.7
2017-06-23T06:11:18.376Z,30.7
2017-06-23T06:12:20.518Z,30.7
2017-06-23T06:13:22.317Z,30.8
2017-06-23T06:14:23.766Z,30.8
2017-06-23T06:15:25.639Z,30.8
2017-06-23T06:16:27.783Z,30.7
2017-06-23T06:17:29.601Z,30.8
2017-06-23T06:18:31.745Z,30.8
2017-06-23T06:19:33.888Z,30.8
2017-06-23T06:20:36.043Z,30.8
2017-06-23T06:21:38.173Z,30.8
2017-06-23T06:22:39.988Z,30.8
2017-06-23T06:23:41.803Z,30.8
2017-06-23T06:24:43.270Z,30.9
2017-06-23T06:25:45.411Z,30.8
2017-06-23T06:26:47.220Z,30.8
2017-06-23T06:27:49.430Z,30.9
2017-06-23T06:28:51.571Z,30.8
2017-06-23T06:29:53.119Z,30.8
2017-06-23T06:30:55.258Z,30.9
2017-06-23T06:31:57.402Z,30.9
2017-06-23T06:32:59.205Z,30.8
2017-06-23T06:34:01.096Z,30.8
2017-06-23T06:35:02.939Z,30.8
2017-06-23T06:36:04.744Z,30.9
2017-06-23T06:37:06.892Z,30.8
2017-06-23T06:38:08.394Z,30.9
2017-06-23T06:39:10.204Z,30.8
2017-06-23T06:40:11.676Z,30.8
2017-06-23T06:41:13.818Z,30.9
2017-06-23T06:42:15.981Z,30.8
2017-06-23T06:43:17.816Z,30.8
2017-06-23T06:44:19.627Z,30.9
2017-06-23T06:45:21.437Z,30.9
2017-06-23T06:46:22.552Z,30.8
2017-06-23T06:47:24.728Z,30.9
2017-06-23T06:48:26.532Z,30.8
2017-06-23T06:49:28.348Z,30.8
2017-06-23T06:50:30.170Z,30.9
2017-06-23T06:51:31.978Z,30.8
2017-06-23T06:52:33.469Z,30.9
2017-06-23T06:53:35.283Z,30.9
2017-06-23T06:54:37.096Z,30.9
2017-06-23T06:55:38.893Z,30.9
2017-06-23T06:56:40.349Z,30.9
2017-06-23T06:57:42.152Z,30.9
2017-06-23T06:58:44.308Z,30.9
2017-06-23T06:59:45.757Z,30.9
2017-06-23T07:00:47.899Z,30.9
2017-06-23T07:01:50.065Z,30.9
2017-06-23T07:02:51.551Z,31
2017-06-23T07:03:53.006Z,31
2017-06-23T07:04:54.822Z,31
2017-06-23T07:05:56.289Z,31
2017-06-23T07:06:57.745Z,30.9
2017-06-23T07:07:59.569Z,31
2017-06-23T07:09:01.378Z,31
2017-06-23T07:10:03.206Z,31
2017-06-23T07:11:04.747Z,31
2017-06-23T07:12:06.230Z,30.9
2017-06-23T07:13:08.384Z,31
2017-06-23T07:14:09.875Z,31
2017-06-23T07:15:11.351Z,31
2017-06-23T07:16:13.567Z,31.1
2017-06-23T07:17:15.708Z,31
2017-06-23T07:18:17.183Z,31
2017-06-23T07:19:19.040Z,31
2017-06-23T07:20:21.258Z,31.1
2017-06-23T07:21:22.378Z,31.1
2017-06-23T07:22:24.588Z,31
2017-06-23T07:23:27.387Z,31
2017-06-23T07:24:28.891Z,31
2017-06-23T07:25:30.701Z,31
2017-06-23T07:26:32.508Z,31
2017-06-23T07:27:33.962Z,31.1
2017-06-23T07:28:35.439Z,31.1
2017-06-23T07:29:37.580Z,31.2
2017-06-23T07:30:39.719Z,31.1
2017-06-23T07:31:41.866Z,31.1
2017-06-23T07:32:43.672Z,31.2
2017-06-23T07:33:44.800Z,31.3
2017-06-23T07:34:45.915Z,31.1
2017-06-23T07:35:48.056Z,31.1
2017-06-23T07:36:49.940Z,31.2
2017-06-23T07:37:51.806Z,31.2
2017-06-23T07:38:53.948Z,31.2
2017-06-23T07:39:55.763Z,31.2
2017-06-23T07:40:57.549Z,31.3
2017-06-23T07:41:59.336Z,31.2
2017-06-23T07:43:01.477Z,31.2
2017-06-23T07:44:02.934Z,31.1
2017-06-23T07:45:04.739Z,31.1
2017-06-23T07:46:06.879Z,31.2
2017-06-23T07:47:08.684Z,31.2
2017-06-23T07:48:10.488Z,31.2
2017-06-23T07:49:12.628Z,31.3
2017-06-23T07:50:14.486Z,31.2
2017-06-23T07:51:16.630Z,31.3
2017-06-23T07:52:18.859Z,31.2
2017-06-23T07:53:20.432Z,31.3
2017-06-23T07:54:22.601Z,31.3
2017-06-23T07:55:24.057Z,31.2
2017-06-23T07:56:26.236Z,31.3
2017-06-23T07:57:28.459Z,31.2
2017-06-23T07:58:30.813Z,31.3
2017-06-23T07:59:32.619Z,31.3
2017-06-23T08:00:34.774Z,31.2
2017-06-23T08:01:36.252Z,31.3
2017-06-23T08:02:38.407Z,31.2
2017-06-23T08:03:40.551Z,31.3
2017-06-23T08:04:42.729Z,31.3
2017-06-23T08:05:44.202Z,31.3
2017-06-23T08:06:46.006Z,31.3
2017-06-23T08:07:47.815Z,31.4
2017-06-23T08:08:49.624Z,31.4
2017-06-23T08:09:51.793Z,31.4
2017-06-23T08:10:53.011Z,31.4
2017-06-23T08:11:54.820Z,31.4
2017-06-23T08:12:56.722Z,31.3
2017-06-23T08:13:58.538Z,31.4
2017-06-23T08:15:00.052Z,31.4
2017-06-23T08:16:02.689Z,31.4
2017-06-23T08:17:04.178Z,31.4
2017-06-23T08:18:05.971Z,31.4
2017-06-23T08:19:07.757Z,31.4
2017-06-23T08:20:09.899Z,31.3
2017-06-23T08:21:11.706Z,31.4
2017-06-23T08:22:13.158Z,31.4
2017-06-23T08:23:14.976Z,31.4
2017-06-23T08:24:16.783Z,31.5
2017-06-23T08:25:18.923Z,31.5
2017-06-23T08:26:21.069Z,31.5
2017-06-23T08:27:22.549Z,31.4
2017-06-23T08:28:24.688Z,31.5
2017-06-23T08:29:26.828Z,31.5
2017-06-23T08:30:28.966Z,31.5
2017-06-23T08:31:31.114Z,31.4
2017-06-23T08:32:32.570Z,31.5
2017-06-23T08:33:34.037Z,31.5
2017-06-23T08:34:35.845Z,31.5
2017-06-23T08:35:37.988Z,31.4
2017-06-23T08:36:39.774Z,31.5
2017-06-23T08:37:41.921Z,31.5
2017-06-23T08:38:43.732Z,31.5
2017-06-23T08:39:45.542Z,31.6
2017-06-23T08:40:47.019Z,31.6
2017-06-23T08:41:48.474Z,31.6
2017-06-23T08:42:50.282Z,31.6
2017-06-23T08:43:51.926Z,31.6
2017-06-23T08:44:54.462Z,31.5
2017-06-23T08:45:56.858Z,31.6
2017-06-23T08:46:59.331Z,31.6
2017-06-23T08:48:00.762Z,31.6
2017-06-23T08:49:03.291Z,31.6
2017-06-23T08:50:05.575Z,31.6
2017-06-23T08:51:07.612Z,31.5
2017-06-23T08:52:09.085Z,31.6
2017-06-23T08:53:11.587Z,31.6
2017-06-23T08:54:14.085Z,31.6
2017-06-23T08:55:16.535Z,31.6
2017-06-23T08:56:18.914Z,31.6
2017-06-23T08:57:20.903Z,31.6
2017-06-23T08:58:22.519Z,31.6
2017-06-23T08:59:24.895Z,31.7
2017-06-23T09:00:27.034Z,31.7
2017-06-23T09:01:29.191Z,31.5
2017-06-23T09:02:30.642Z,31.6
2017-06-23T09:03:32.146Z,31.7
2017-06-23T09:04:33.988Z,31.6
2017-06-23T09:05:35.856Z,31.7
2017-06-23T09:06:37.347Z,31.7
2017-06-23T09:07:39.183Z,31.7
2017-06-23T09:08:40.698Z,31.6
2017-06-23T09:09:41.885Z,31.7
2017-06-23T09:10:44.115Z,31.7
2017-06-23T09:11:45.928Z,31.7
2017-06-23T09:12:48.072Z,31.7
2017-06-23T09:13:50.213Z,31.7
2017-06-23T09:14:52.361Z,31.7
2017-06-23T09:15:54.165Z,31.7
2017-06-23T09:16:55.953Z,31.7
2017-06-23T09:17:57.413Z,31.7
2017-06-23T09:18:59.228Z,31.7
2017-06-23T09:20:01.378Z,31.7
2017-06-23T09:21:03.183Z,31.7
2017-06-23T09:22:04.996Z,31.6
2017-06-23T09:23:06.785Z,31.7
2017-06-23T09:24:09.027Z,31.7
2017-06-23T09:25:10.481Z,31.7
2017-06-23T09:26:12.293Z,31.7
2017-06-23T09:27:14.434Z,31.7
2017-06-23T09:28:15.919Z,31.8
2017-06-23T09:29:17.730Z,31.6
2017-06-23T09:30:19.540Z,31.7
2017-06-23T09:31:21.325Z,31.7
2017-06-23T09:32:23.135Z,31.7
2017-06-23T09:33:24.591Z,31.7
2017-06-23T09:34:26.734Z,31.7
2017-06-23T09:35:27.873Z,31.7
2017-06-23T09:36:29.682Z,31.7
2017-06-23T09:37:31.468Z,31.6
2017-06-23T09:38:33.272Z,31.6
2017-06-23T09:39:35.182Z,31.6
2017-06-23T09:40:36.989Z,31.7
2017-06-23T09:41:39.131Z,31.7
2017-06-23T09:42:40.587Z,31.6
2017-06-23T09:43:42.373Z,31.7
2017-06-23T09:44:44.184Z,31.7
2017-06-23T09:45:45.965Z,31.7
2017-06-23T09:46:47.771Z,31.7
2017-06-23T09:47:49.578Z,31.7
2017-06-23T09:48:51.032Z,31.7
2017-06-23T09:49:53.226Z,31.7
2017-06-23T09:50:54.343Z,31.7
2017-06-23T09:51:55.818Z,31.7
2017-06-23T09:52:57.959Z,31.7
2017-06-23T09:53:59.436Z,31.7
2017-06-23T09:55:01.244Z,31.7
2017-06-23T09:56:02.698Z,31.6
2017-06-23T09:57:03.838Z,31.7
2017-06-23T09:58:05.781Z,31.7
2017-06-23T09:59:07.938Z,31.7
2017-06-23T10:00:10.063Z,31.6
2017-06-23T10:01:11.873Z,31.6
2017-06-23T10:02:13.350Z,31.7
2017-06-23T10:03:15.200Z,31.7
2017-06-23T10:04:17.415Z,31.8
2017-06-23T10:05:18.892Z,31.7
2017-06-23T10:06:21.031Z,31.8
2017-06-23T10:07:22.482Z,31.7
2017-06-23T10:08:24.623Z,31.8
2017-06-23T10:09:26.435Z,31.8
2017-06-23T10:10:28.251Z,31.7
2017-06-23T10:11:29.745Z,31.8
2017-06-23T10:12:31.885Z,31.7
2017-06-23T10:13:33.003Z,31.7
2017-06-23T10:14:34.787Z,31.8
2017-06-23T10:15:36.978Z,31.9
2017-06-23T10:16:38.790Z,31.8
2017-06-23T10:17:40.603Z,31.9
2017-06-23T10:18:42.741Z,31.8
2017-06-23T10:19:44.881Z,31.9
2017-06-23T10:20:46.688Z,31.9
2017-06-23T10:21:48.165Z,31.9
2017-06-23T10:22:49.616Z,31.9
2017-06-23T10:23:50.736Z,31.8
2017-06-23T10:24:51.874Z,31.9
2017-06-23T10:25:54.013Z,31.8
2017-06-23T10:26:55.810Z,31.9
2017-06-23T10:27:57.615Z,31.8
2017-06-23T10:28:59.424Z,31.9
2017-06-23T10:30:01.232Z,31.8
2017-06-23T10:31:03.042Z,31.9
2017-06-23T10:32:04.157Z,31.8
2017-06-23T10:33:06.004Z,31.9
2017-06-23T10:34:07.477Z,31.8
2017-06-23T10:35:09.614Z,31.9
2017-06-23T10:36:11.467Z,31.8
2017-06-23T10:37:13.278Z,31.8
2017-06-23T10:38:15.419Z,31.8
2017-06-23T10:39:17.557Z,31.8
2017-06-23T10:40:19.374Z,31.9
2017-06-23T10:41:21.518Z,31.9
2017-06-23T10:42:23.655Z,31.8
2017-06-23T10:43:25.439Z,31.9
2017-06-23T10:44:27.577Z,31.9
2017-06-23T10:45:29.719Z,31.9
2017-06-23T10:46:31.167Z,31.8
2017-06-23T10:47:33.310Z,31.8
2017-06-23T10:48:35.101Z,31.9
2017-06-23T10:49:36.885Z,31.8
2017-06-23T10:50:38.361Z,31.9
2017-06-23T10:51:40.181Z,31.9
2017-06-23T10:52:42.000Z,31.9
2017-06-23T10:53:43.792Z,31.9
2017-06-23T10:54:44.910Z,31.9
2017-06-23T10:55:46.385Z,31.9
2017-06-23T10:56:48.524Z,31.9
2017-06-23T10:57:50.312Z,31.9
2017-06-23T10:58:52.125Z,32
2017-06-23T10:59:53.595Z,32
2017-06-23T11:00:55.732Z,31.9
2017-06-23T11:01:57.189Z,31.9
2017-06-23T11:02:59.545Z,32
2017-06-23T11:04:01.025Z,31.9
2017-06-23T11:05:02.496Z,32
2017-06-23T11:06:03.971Z,31.9
2017-06-23T11:07:06.109Z,31.9
2017-06-23T11:08:08.249Z,32
2017-06-23T11:09:10.059Z,31.9
2017-06-23T11:10:12.202Z,31.9
2017-06-23T11:11:13.672Z,31.9
2017-06-23T11:12:15.813Z,32
2017-06-23T11:13:17.624Z,32
2017-06-23T11:14:19.762Z,32
2017-06-23T11:15:21.919Z,31.9
2017-06-23T11:16:23.381Z,31.9
2017-06-23T11:17:25.518Z,32
2017-06-23T11:18:27.662Z,31.9
2017-06-23T11:19:29.114Z,31.9
2017-06-23T11:20:31.254Z,32
2017-06-23T11:21:33.072Z,32
2017-06-23T11:22:35.209Z,31.9
2017-06-23T11:23:36.686Z,32
2017-06-23T11:24:38.136Z,31.9
2017-06-23T11:25:39.969Z,32
2017-06-23T11:26:41.802Z,32
2017-06-23T11:27:44.004Z,32
2017-06-23T11:28:46.216Z,31.9
2017-06-23T11:29:48.025Z,32.1
2017-06-23T11:30:50.163Z,32.1
2017-06-23T11:31:51.971Z,32.1
2017-06-23T11:32:53.886Z,32
2017-06-23T11:33:56.020Z,32.1
2017-06-23T11:34:57.829Z,32.1
2017-06-23T11:35:59.967Z,32.1
2017-06-23T11:37:01.429Z,32.1
2017-06-23T11:38:03.238Z,32.1
2017-06-23T11:39:04.713Z,32.1
2017-06-23T11:40:06.196Z,32.1
2017-06-23T11:41:07.649Z,32
2017-06-23T11:42:09.789Z,32
2017-06-23T11:43:11.925Z,32.1
2017-06-23T11:44:13.710Z,32.1
2017-06-23T11:45:14.853Z,32
2017-06-23T11:46:16.657Z,32
2017-06-23T11:47:18.132Z,32.1
2017-06-23T11:48:19.609Z,32.1
2017-06-23T11:49:21.400Z,32.1
2017-06-23T11:50:23.540Z,32
2017-06-23T11:51:25.352Z,32.1
2017-06-23T11:52:27.488Z,32.1
2017-06-23T11:53:29.634Z,32.1
2017-06-23T11:54:31.084Z,32.1
2017-06-23T11:55:33.223Z,32.1
2017-06-23T11:56:35.368Z,32.1
2017-06-23T11:57:36.483Z,32.1
2017-06-23T11:58:38.625Z,32.1
2017-06-23T11:59:40.764Z,32.1
2017-06-23T12:00:42.572Z,32.1
2017-06-23T12:01:44.040Z,32.1
2017-06-23T12:02:46.182Z,32.1
2017-06-23T12:03:47.991Z,32.1
2017-06-23T12:04:49.798Z,32.1
2017-06-23T12:05:51.608Z,32.1
2017-06-23T12:06:53.743Z,32.1
2017-06-23T12:07:55.555Z,32.1
2017-06-23T12:08:57.028Z,32
2017-06-23T12:09:58.837Z,32.1
2017-06-23T12:11:00.644Z,32.1
2017-06-23T12:12:02.783Z,32.1
2017-06-23T12:13:03.573Z,32
2017-06-23T12:14:05.384Z,32.1
2017-06-23T12:15:07.522Z,32.2
2017-06-23T12:16:08.983Z,32.1
2017-06-23T12:17:10.124Z,32.1
2017-06-23T12:18:11.935Z,32.1
2017-06-23T12:19:13.741Z,32.2
2017-06-23T12:20:15.881Z,32.1
2017-06-23T12:21:17.665Z,32.1
2017-06-23T12:22:19.457Z,32.1
2017-06-23T12:23:21.245Z,32.1
2017-06-23T12:24:23.433Z,32.2
2017-06-23T12:25:24.904Z,32.1
2017-06-23T12:26:26.354Z,32.1
2017-06-23T12:27:27.830Z,32.1
2017-06-23T12:28:29.970Z,32.1
2017-06-23T12:29:31.779Z,32.1
2017-06-23T12:30:33.918Z,32
2017-06-23T12:31:35.707Z,32.1
2017-06-23T12:32:37.178Z,32.1
2017-06-23T12:33:38.630Z,32.1
2017-06-23T12:34:40.439Z,32.2
2017-06-23T12:35:42.265Z,32.2
2017-06-23T12:36:44.389Z,32.3
2017-06-23T12:37:46.533Z,32.2
2017-06-23T12:38:48.673Z,32.1
2017-06-23T12:39:50.147Z,32.1
2017-06-23T12:40:52.286Z,32.1
2017-06-23T12:41:54.070Z,32.1
2017-06-23T12:42:55.220Z,32.1
2017-06-23T12:43:57.023Z,32.1
2017-06-23T12:44:58.829Z,32.1
2017-06-23T12:46:00.979Z,32.1
2017-06-23T12:47:02.453Z,32.1
2017-06-23T12:48:04.262Z,32.1
2017-06-23T12:49:05.733Z,32.1
2017-06-23T12:50:07.518Z,32.1
2017-06-23T12:51:08.971Z,32.1
2017-06-23T12:52:11.107Z,32.1
2017-06-23T12:53:12.920Z,32.1
2017-06-23T12:54:15.067Z,32
2017-06-23T12:55:16.873Z,32.1
2017-06-23T12:56:18.678Z,32.1
2017-06-23T12:57:20.488Z,32
2017-06-23T12:58:22.270Z,32.1
2017-06-23T12:59:23.729Z,32.1
2017-06-23T13:00:25.549Z,32.1
2017-06-23T13:01:27.337Z,32.1
2017-06-23T13:02:28.810Z,32.1
2017-06-23T13:03:30.620Z,32.1
2017-06-23T13:04:32.425Z,32.1
2017-06-23T13:05:34.235Z,32.1
2017-06-23T13:06:35.713Z,32.1
2017-06-23T13:07:37.161Z,32.1
2017-06-23T13:08:38.278Z,32.1
2017-06-23T13:09:40.417Z,32.1
2017-06-23T13:10:42.200Z,32.1
2017-06-23T13:11:44.341Z,32.1
2017-06-23T13:12:46.124Z,32.1
2017-06-23T13:13:47.936Z,32.1
2017-06-23T13:14:50.074Z,32.1
2017-06-23T13:15:51.860Z,32.1
2017-06-23T13:16:53.667Z,32.1
2017-06-23T13:17:55.478Z,32.1
2017-06-23T13:18:56.951Z,32.1
2017-06-23T13:19:58.760Z,32.1
2017-06-23T13:21:00.906Z,32.1
2017-06-23T13:22:02.374Z,32.1
2017-06-23T13:23:03.826Z,32.1
2017-06-23T13:24:05.305Z,32.1
2017-06-23T13:25:07.215Z,32.2
2017-06-23T13:26:09.019Z,32.1
2017-06-23T13:27:10.826Z,32.2
2017-06-23T13:28:12.616Z,32.2
2017-06-23T13:29:14.418Z,32.2
2017-06-23T13:30:16.204Z,32.2
2017-06-23T13:31:18.007Z,32.2
2017-06-23T13:32:19.488Z,32.2
2017-06-23T13:33:20.962Z,32.1
2017-06-23T13:34:23.102Z,32.1
2017-06-23T13:35:24.913Z,32.1
2017-06-23T13:36:26.716Z,32
2017-06-23T13:37:28.172Z,32.1
2017-06-23T13:38:29.632Z,32
2017-06-23T13:39:30.419Z,32.1
2017-06-23T13:40:31.545Z,32.1
2017-06-23T13:41:33.353Z,32.1
2017-06-23T13:42:35.494Z,32.1
2017-06-23T13:43:36.970Z,32.1
2017-06-23T13:44:39.113Z,32.1
2017-06-23T13:45:40.587Z,32.2